!!! Benutzen Sie für Ihre Flugvorbereitung die offiziellen Quellen !!!

Metar:

EDQM 130850Z 04008KT 5000 BR BKN004 OVC013 M04/M05 Q1019

QNH: 1019
Temperatur: -4
Dew Point : -5

 

METAR (decoded)